sensor_id;sensor_type;location;lat;lon;timestamp;temperature;humidity
43810;DHT22;29440;48.208;11.162;2022-11-20T00:00:02;5.70;99.90
43810;DHT22;29440;48.208;11.162;2022-11-20T00:02:28;5.80;99.90
43810;DHT22;29440;48.208;11.162;2022-11-20T00:04:54;5.70;99.90
43810;DHT22;29440;48.208;11.162;2022-11-20T00:07:19;5.80;99.90
43810;DHT22;29440;48.208;11.162;2022-11-20T00:09:45;5.70;99.90
43810;DHT22;29440;48.208;11.162;2022-11-20T00:12:10;5.70;99.90
43810;DHT22;29440;48.208;11.162;2022-11-20T00:14:36;5.70;99.90
43810;DHT22;29440;48.208;11.162;2022-11-20T00:17:01;5.60;99.90
43810;DHT22;29440;48.208;11.162;2022-11-20T00:19:27;5.60;99.90
43810;DHT22;29440;48.208;11.162;2022-11-20T00:21:53;5.70;99.90
43810;DHT22;29440;48.208;11.162;2022-11-20T00:24:20;5.60;99.90
43810;DHT22;29440;48.208;11.162;2022-11-20T00:26:46;5.60;99.90
43810;DHT22;29440;48.208;11.162;2022-11-20T00:29:13;5.60;99.90
43810;DHT22;29440;48.208;11.162;2022-11-20T00:31:38;5.60;99.90
43810;DHT22;29440;48.208;11.162;2022-11-20T00:34:04;5.60;99.90
43810;DHT22;29440;48.208;11.162;2022-11-20T00:36:33;5.50;99.90
43810;DHT22;29440;48.208;11.162;2022-11-20T00:38:59;5.60;99.90
43810;DHT22;29440;48.208;11.162;2022-11-20T00:41:26;5.50;99.90
43810;DHT22;29440;48.208;11.162;2022-11-20T00:43:53;5.50;99.90
43810;DHT22;29440;48.208;11.162;2022-11-20T00:46:21;5.50;99.90
43810;DHT22;29440;48.208;11.162;2022-11-20T00:48:47;5.60;99.90
43810;DHT22;29440;48.208;11.162;2022-11-20T00:51:16;5.50;99.90
43810;DHT22;29440;48.208;11.162;2022-11-20T00:53:42;5.60;99.90
43810;DHT22;29440;48.208;11.162;2022-11-20T00:56:14;5.50;99.90
43810;DHT22;29440;48.208;11.162;2022-11-20T00:58:41;5.60;99.90
43810;DHT22;29440;48.208;11.162;2022-11-20T01:03:40;5.50;99.90
43810;DHT22;29440;48.208;11.162;2022-11-20T01:06:10;5.50;99.90
43810;DHT22;29440;48.208;11.162;2022-11-20T01:08:37;5.50;99.90
43810;DHT22;29440;48.208;11.162;2022-11-20T01:11:05;5.60;99.90
43810;DHT22;29440;48.208;11.162;2022-11-20T01:13:31;5.50;99.90
43810;DHT22;29440;48.208;11.162;2022-11-20T01:16:17;5.50;99.90
43810;DHT22;29440;48.208;11.162;2022-11-20T01:18:45;5.50;99.90
43810;DHT22;29440;48.208;11.162;2022-11-20T01:21:15;5.50;99.90
43810;DHT22;29440;48.208;11.162;2022-11-20T01:23:42;5.50;99.90
43810;DHT22;29440;48.208;11.162;2022-11-20T01:26:11;5.50;99.90
43810;DHT22;29440;48.208;11.162;2022-11-20T01:28:38;5.60;99.90
43810;DHT22;29440;48.208;11.162;2022-11-20T01:33:41;5.50;99.90
43810;DHT22;29440;48.208;11.162;2022-11-20T01:36:08;5.40;99.90
43810;DHT22;29440;48.208;11.162;2022-11-20T01:38:34;5.40;99.90
43810;DHT22;29440;48.208;11.162;2022-11-20T01:41:00;5.40;99.90
43810;DHT22;29440;48.208;11.162;2022-11-20T01:43:26;5.40;99.90
43810;DHT22;29440;48.208;11.162;2022-11-20T01:48:58;5.40;99.90
43810;DHT22;29440;48.208;11.162;2022-11-20T01:51:39;5.40;99.90
43810;DHT22;29440;48.208;11.162;2022-11-20T01:54:10;5.40;99.90
43810;DHT22;29440;48.208;11.162;2022-11-20T01:56:40;5.40;99.90
43810;DHT22;29440;48.208;11.162;2022-11-20T01:59:14;5.40;99.90
43810;DHT22;29440;48.208;11.162;2022-11-20T02:01:41;5.50;99.90
43810;DHT22;29440;48.208;11.162;2022-11-20T02:04:08;5.40;99.90
43810;DHT22;29440;48.208;11.162;2022-11-20T02:06:49;5.40;99.90
43810;DHT22;29440;48.208;11.162;2022-11-20T02:09:16;5.40;99.90
43810;DHT22;29440;48.208;11.162;2022-11-20T02:11:42;5.40;99.90
43810;DHT22;29440;48.208;11.162;2022-11-20T02:14:09;5.30;99.90
43810;DHT22;29440;48.208;11.162;2022-11-20T02:16:37;5.40;99.90
43810;DHT22;29440;48.208;11.162;2022-11-20T02:19:08;5.40;99.90
43810;DHT22;29440;48.208;11.162;2022-11-20T02:29:12;5.40;99.90
43810;DHT22;29440;48.208;11.162;2022-11-20T02:31:41;5.40;99.90
43810;DHT22;29440;48.208;11.162;2022-11-20T02:34:08;5.40;99.90
43810;DHT22;29440;48.208;11.162;2022-11-20T02:36:35;5.40;99.90
43810;DHT22;29440;48.208;11.162;2022-11-20T02:39:03;5.40;99.90
43810;DHT22;29440;48.208;11.162;2022-11-20T02:41:36;5.40;99.90
43810;DHT22;29440;48.208;11.162;2022-11-20T02:44:03;5.40;99.90
43810;DHT22;29440;48.208;11.162;2022-11-20T02:46:29;5.50;99.90
43810;DHT22;29440;48.208;11.162;2022-11-20T02:48:55;5.40;99.90
43810;DHT22;29440;48.208;11.162;2022-11-20T02:51:21;5.40;99.90
43810;DHT22;29440;48.208;11.162;2022-11-20T02:53:47;5.40;99.90
43810;DHT22;29440;48.208;11.162;2022-11-20T02:56:13;5.40;99.90
43810;DHT22;29440;48.208;11.162;2022-11-20T02:58:40;5.40;99.90
43810;DHT22;29440;48.208;11.162;2022-11-20T03:01:23;5.40;99.90
43810;DHT22;29440;48.208;11.162;2022-11-20T03:03:48;5.40;99.90
43810;DHT22;29440;48.208;11.162;2022-11-20T03:06:15;5.40;99.90
43810;DHT22;29440;48.208;11.162;2022-11-20T03:08:42;5.40;99.90
43810;DHT22;29440;48.208;11.162;2022-11-20T03:11:09;5.40;99.90
43810;DHT22;29440;48.208;11.162;2022-11-20T03:13:35;5.30;99.90
43810;DHT22;29440;48.208;11.162;2022-11-20T03:16:23;5.40;99.90
43810;DHT22;29440;48.208;11.162;2022-11-20T03:18:51;5.40;99.90
43810;DHT22;29440;48.208;11.162;2022-11-20T03:21:17;5.40;99.90
43810;DHT22;29440;48.208;11.162;2022-11-20T03:23:43;5.30;99.90
43810;DHT22;29440;48.208;11.162;2022-11-20T03:26:17;5.40;99.90
43810;DHT22;29440;48.208;11.162;2022-11-20T03:28:49;5.30;99.90
43810;DHT22;29440;48.208;11.162;2022-11-20T03:31:16;5.30;99.90
43810;DHT22;29440;48.208;11.162;2022-11-20T03:33:42;5.40;99.90
43810;DHT22;29440;48.208;11.162;2022-11-20T03:36:10;5.30;99.90
43810;DHT22;29440;48.208;11.162;2022-11-20T03:38:37;5.30;99.90
43810;DHT22;29440;48.208;11.162;2022-11-20T03:41:12;5.30;99.90
43810;DHT22;29440;48.208;11.162;2022-11-20T03:43:38;5.30;99.90
43810;DHT22;29440;48.208;11.162;2022-11-20T03:46:04;5.30;99.90
43810;DHT22;29440;48.208;11.162;2022-11-20T03:48:30;5.30;99.90
43810;DHT22;29440;48.208;11.162;2022-11-20T03:51:13;5.30;99.90
43810;DHT22;29440;48.208;11.162;2022-11-20T03:53:40;5.30;99.90
43810;DHT22;29440;48.208;11.162;2022-11-20T03:56:07;5.30;99.90
43810;DHT22;29440;48.208;11.162;2022-11-20T03:58:34;5.30;99.90
43810;DHT22;29440;48.208;11.162;2022-11-20T04:01:14;5.30;99.90
43810;DHT22;29440;48.208;11.162;2022-11-20T04:03:42;5.30;99.90
43810;DHT22;29440;48.208;11.162;2022-11-20T04:06:13;5.30;99.90
43810;DHT22;29440;48.208;11.162;2022-11-20T04:08:40;5.30;99.90
43810;DHT22;29440;48.208;11.162;2022-11-20T04:13:40;5.30;99.90
43810;DHT22;29440;48.208;11.162;2022-11-20T04:16:08;5.30;99.90
43810;DHT22;29440;48.208;11.162;2022-11-20T04:18:34;5.30;99.90
43810;DHT22;29440;48.208;11.162;2022-11-20T04:21:00;5.40;99.90
43810;DHT22;29440;48.208;11.162;2022-11-20T04:23:27;5.30;99.90
43810;DHT22;29440;48.208;11.162;2022-11-20T04:25:53;5.40;99.90
43810;DHT22;29440;48.208;11.162;2022-11-20T04:28:19;5.30;99.90
43810;DHT22;29440;48.208;11.162;2022-11-20T04:30:45;5.30;99.90
43810;DHT22;29440;48.208;11.162;2022-11-20T04:33:11;5.30;99.90
43810;DHT22;29440;48.208;11.162;2022-11-20T04:35:37;5.30;99.90
43810;DHT22;29440;48.208;11.162;2022-11-20T04:38:03;5.30;99.90
43810;DHT22;29440;48.208;11.162;2022-11-20T04:40:29;5.30;99.90
43810;DHT22;29440;48.208;11.162;2022-11-20T04:42:55;5.30;99.90
43810;DHT22;29440;48.208;11.162;2022-11-20T04:45:21;5.30;99.90
43810;DHT22;29440;48.208;11.162;2022-11-20T04:47:47;5.30;99.90
43810;DHT22;29440;48.208;11.162;2022-11-20T04:50:13;5.30;99.90
43810;DHT22;29440;48.208;11.162;2022-11-20T04:52:39;5.30;99.90
43810;DHT22;29440;48.208;11.162;2022-11-20T04:55:06;5.30;99.90
43810;DHT22;29440;48.208;11.162;2022-11-20T04:57:31;5.40;99.90
43810;DHT22;29440;48.208;11.162;2022-11-20T04:59:57;5.30;99.90
43810;DHT22;29440;48.208;11.162;2022-11-20T05:02:22;5.30;99.90
43810;DHT22;29440;48.208;11.162;2022-11-20T05:04:49;5.40;99.90
43810;DHT22;29440;48.208;11.162;2022-11-20T05:07:15;5.40;99.90
43810;DHT22;29440;48.208;11.162;2022-11-20T05:09:41;5.30;99.90
43810;DHT22;29440;48.208;11.162;2022-11-20T05:12:10;5.40;99.90
43810;DHT22;29440;48.208;11.162;2022-11-20T05:14:35;5.40;99.90
43810;DHT22;29440;48.208;11.162;2022-11-20T05:17:02;5.40;99.90
43810;DHT22;29440;48.208;11.162;2022-11-20T05:19:27;5.40;99.90
43810;DHT22;29440;48.208;11.162;2022-11-20T05:21:53;5.40;99.90
43810;DHT22;29440;48.208;11.162;2022-11-20T05:24:19;5.50;99.90
43810;DHT22;29440;48.208;11.162;2022-11-20T05:26:45;5.60;99.90
43810;DHT22;29440;48.208;11.162;2022-11-20T05:29:11;5.30;99.90
43810;DHT22;29440;48.208;11.162;2022-11-20T05:31:39;5.30;99.90
43810;DHT22;29440;48.208;11.162;2022-11-20T05:34:05;5.30;99.90
43810;DHT22;29440;48.208;11.162;2022-11-20T05:36:31;5.30;99.90
43810;DHT22;29440;48.208;11.162;2022-11-20T05:38:57;5.30;99.90
43810;DHT22;29440;48.208;11.162;2022-11-20T05:41:22;5.30;99.90
43810;DHT22;29440;48.208;11.162;2022-11-20T05:43:49;5.30;99.90
43810;DHT22;29440;48.208;11.162;2022-11-20T05:46:17;5.20;99.90
43810;DHT22;29440;48.208;11.162;2022-11-20T05:48:44;5.10;99.90
43810;DHT22;29440;48.208;11.162;2022-11-20T05:51:13;5.20;99.90
43810;DHT22;29440;48.208;11.162;2022-11-20T05:53:38;5.10;99.90
43810;DHT22;29440;48.208;11.162;2022-11-20T05:56:09;5.00;99.90
43810;DHT22;29440;48.208;11.162;2022-11-20T05:58:35;5.00;99.90
43810;DHT22;29440;48.208;11.162;2022-11-20T06:01:22;5.00;99.90
43810;DHT22;29440;48.208;11.162;2022-11-20T06:03:49;5.10;99.90
43810;DHT22;29440;48.208;11.162;2022-11-20T06:06:17;4.90;99.90
43810;DHT22;29440;48.208;11.162;2022-11-20T06:08:43;5.00;99.90
43810;DHT22;29440;48.208;11.162;2022-11-20T06:11:11;4.90;99.90
43810;DHT22;29440;48.208;11.162;2022-11-20T06:13:38;4.90;99.90
43810;DHT22;29440;48.208;11.162;2022-11-20T06:16:04;4.90;99.90
43810;DHT22;29440;48.208;11.162;2022-11-20T06:18:30;4.80;99.90
43810;DHT22;29440;48.208;11.162;2022-11-20T06:21:11;4.80;99.90
43810;DHT22;29440;48.208;11.162;2022-11-20T06:23:37;4.80;99.90
43810;DHT22;29440;48.208;11.162;2022-11-20T06:26:07;4.70;99.90
43810;DHT22;29440;48.208;11.162;2022-11-20T06:28:34;4.70;99.90
43810;DHT22;29440;48.208;11.162;2022-11-20T06:31:00;4.70;99.90
43810;DHT22;29440;48.208;11.162;2022-11-20T06:33:26;4.80;99.90
43810;DHT22;29440;48.208;11.162;2022-11-20T06:35:52;4.80;99.90
43810;DHT22;29440;48.208;11.162;2022-11-20T06:38:21;4.70;99.90
43810;DHT22;29440;48.208;11.162;2022-11-20T06:40:47;4.80;99.90
43810;DHT22;29440;48.208;11.162;2022-11-20T06:43:12;4.70;99.90
43810;DHT22;29440;48.208;11.162;2022-11-20T06:45:38;4.80;99.90
43810;DHT22;29440;48.208;11.162;2022-11-20T06:48:04;4.70;99.90
43810;DHT22;29440;48.208;11.162;2022-11-20T06:50:30;4.80;99.90
43810;DHT22;29440;48.208;11.162;2022-11-20T06:52:55;4.80;99.90
43810;DHT22;29440;48.208;11.162;2022-11-20T06:55:21;4.80;99.90
43810;DHT22;29440;48.208;11.162;2022-11-20T06:57:47;4.80;99.90
43810;DHT22;29440;48.208;11.162;2022-11-20T07:00:13;4.80;99.90
43810;DHT22;29440;48.208;11.162;2022-11-20T07:02:39;4.90;99.90
43810;DHT22;29440;48.208;11.162;2022-11-20T07:05:08;4.90;99.90
43810;DHT22;29440;48.208;11.162;2022-11-20T07:07:33;4.90;99.90
43810;DHT22;29440;48.208;11.162;2022-11-20T07:09:59;4.90;99.90
43810;DHT22;29440;48.208;11.162;2022-11-20T07:12:25;5.00;99.90
43810;DHT22;29440;48.208;11.162;2022-11-20T07:14:51;5.00;99.90
43810;DHT22;29440;48.208;11.162;2022-11-20T07:17:16;5.00;99.90
43810;DHT22;29440;48.208;11.162;2022-11-20T07:19:42;5.00;99.90
43810;DHT22;29440;48.208;11.162;2022-11-20T07:22:08;5.00;99.90
43810;DHT22;29440;48.208;11.162;2022-11-20T07:24:34;5.10;99.90
43810;DHT22;29440;48.208;11.162;2022-11-20T07:27:00;5.20;99.90
43810;DHT22;29440;48.208;11.162;2022-11-20T07:29:26;5.10;99.90
43810;DHT22;29440;48.208;11.162;2022-11-20T07:31:52;5.20;99.90
43810;DHT22;29440;48.208;11.162;2022-11-20T07:34:18;5.10;99.90
43810;DHT22;29440;48.208;11.162;2022-11-20T07:36:43;5.20;99.90
43810;DHT22;29440;48.208;11.162;2022-11-20T07:39:09;5.20;99.90
43810;DHT22;29440;48.208;11.162;2022-11-20T07:41:34;5.20;99.90
43810;DHT22;29440;48.208;11.162;2022-11-20T07:44:00;5.30;99.90
43810;DHT22;29440;48.208;11.162;2022-11-20T07:46:26;5.30;99.90
43810;DHT22;29440;48.208;11.162;2022-11-20T07:48:51;5.30;99.90
43810;DHT22;29440;48.208;11.162;2022-11-20T07:51:17;5.40;99.90
43810;DHT22;29440;48.208;11.162;2022-11-20T07:53:42;5.40;99.90
43810;DHT22;29440;48.208;11.162;2022-11-20T07:56:08;5.40;99.90
43810;DHT22;29440;48.208;11.162;2022-11-20T07:58:34;5.50;99.90
43810;DHT22;29440;48.208;11.162;2022-11-20T08:01:15;5.60;99.90
43810;DHT22;29440;48.208;11.162;2022-11-20T08:03:40;5.60;99.90
43810;DHT22;29440;48.208;11.162;2022-11-20T08:06:06;5.60;99.90
43810;DHT22;29440;48.208;11.162;2022-11-20T08:08:32;5.60;99.90
43810;DHT22;29440;48.208;11.162;2022-11-20T08:10:58;5.60;99.90
43810;DHT22;29440;48.208;11.162;2022-11-20T08:13:42;5.70;99.90
43810;DHT22;29440;48.208;11.162;2022-11-20T08:16:26;5.70;99.90
43810;DHT22;29440;48.208;11.162;2022-11-20T08:18:52;5.80;99.90
43810;DHT22;29440;48.208;11.162;2022-11-20T08:21:17;5.80;99.90
43810;DHT22;29440;48.208;11.162;2022-11-20T08:23:43;5.80;99.90
43810;DHT22;29440;48.208;11.162;2022-11-20T08:26:08;5.90;99.90
43810;DHT22;29440;48.208;11.162;2022-11-20T08:28:34;5.90;99.90
43810;DHT22;29440;48.208;11.162;2022-11-20T08:31:00;6.00;99.90
43810;DHT22;29440;48.208;11.162;2022-11-20T08:33:26;6.00;99.90
43810;DHT22;29440;48.208;11.162;2022-11-20T08:35:52;6.00;99.90
43810;DHT22;29440;48.208;11.162;2022-11-20T08:38:18;6.10;99.90
43810;DHT22;29440;48.208;11.162;2022-11-20T08:40:43;6.20;99.90
43810;DHT22;29440;48.208;11.162;2022-11-20T08:43:31;6.30;99.90
43810;DHT22;29440;48.208;11.162;2022-11-20T08:45:57;6.30;99.90
43810;DHT22;29440;48.208;11.162;2022-11-20T08:48:23;6.40;99.90
43810;DHT22;29440;48.208;11.162;2022-11-20T08:50:59;6.30;99.90
43810;DHT22;29440;48.208;11.162;2022-11-20T08:53:25;6.30;99.90
43810;DHT22;29440;48.208;11.162;2022-11-20T08:55:56;6.40;99.90
43810;DHT22;29440;48.208;11.162;2022-11-20T08:58:21;6.40;99.90
43810;DHT22;29440;48.208;11.162;2022-11-20T09:00:51;6.40;99.90
43810;DHT22;29440;48.208;11.162;2022-11-20T09:03:17;6.40;99.90
43810;DHT22;29440;48.208;11.162;2022-11-20T09:05:43;6.40;99.90
43810;DHT22;29440;48.208;11.162;2022-11-20T09:08:08;6.40;99.90
43810;DHT22;29440;48.208;11.162;2022-11-20T09:10:34;6.50;99.90
43810;DHT22;29440;48.208;11.162;2022-11-20T09:13:00;6.50;99.90
43810;DHT22;29440;48.208;11.162;2022-11-20T09:15:27;6.50;99.90
43810;DHT22;29440;48.208;11.162;2022-11-20T09:17:57;6.60;99.90
43810;DHT22;29440;48.208;11.162;2022-11-20T09:20:24;6.60;99.90
43810;DHT22;29440;48.208;11.162;2022-11-20T09:22:50;6.70;99.90
43810;DHT22;29440;48.208;11.162;2022-11-20T09:25:17;6.70;99.90
43810;DHT22;29440;48.208;11.162;2022-11-20T09:27:42;6.80;99.90
43810;DHT22;29440;48.208;11.162;2022-11-20T09:30:10;6.90;99.90
43810;DHT22;29440;48.208;11.162;2022-11-20T09:32:35;7.10;99.90
43810;DHT22;29440;48.208;11.162;2022-11-20T09:35:01;7.20;99.90
43810;DHT22;29440;48.208;11.162;2022-11-20T09:37:27;7.30;99.90
43810;DHT22;29440;48.208;11.162;2022-11-20T09:39:53;7.40;99.90
43810;DHT22;29440;48.208;11.162;2022-11-20T09:45:24;7.70;99.90
43810;DHT22;29440;48.208;11.162;2022-11-20T09:50:57;7.70;99.90
43810;DHT22;29440;48.208;11.162;2022-11-20T09:56:09;7.80;99.90
43810;DHT22;29440;48.208;11.162;2022-11-20T09:58:44;7.80;99.90
43810;DHT22;29440;48.208;11.162;2022-11-20T10:01:22;7.90;99.90
43810;DHT22;29440;48.208;11.162;2022-11-20T10:07:03;7.90;99.90
43810;DHT22;29440;48.208;11.162;2022-11-20T10:29:38;8.00;99.90
43810;DHT22;29440;48.208;11.162;2022-11-20T10:31:51;8.00;99.90
43810;DHT22;29440;48.208;11.162;2022-11-20T10:34:35;7.90;99.90
43810;DHT22;29440;48.208;11.162;2022-11-20T10:37:17;7.90;99.90
43810;DHT22;29440;48.208;11.162;2022-11-20T10:47:54;7.80;99.90
43810;DHT22;29440;48.208;11.162;2022-11-20T10:50:22;7.70;99.90
43810;DHT22;29440;48.208;11.162;2022-11-20T10:52:55;7.70;99.90
43810;DHT22;29440;48.208;11.162;2022-11-20T10:55:47;7.60;99.90
43810;DHT22;29440;48.208;11.162;2022-11-20T11:01:16;7.60;99.90
43810;DHT22;29440;48.208;11.162;2022-11-20T11:03:42;7.60;99.90
43810;DHT22;29440;48.208;11.162;2022-11-20T11:06:29;7.60;99.90
43810;DHT22;29440;48.208;11.162;2022-11-20T11:08:59;7.60;99.90
43810;DHT22;29440;48.208;11.162;2022-11-20T11:11:32;7.60;99.90
43810;DHT22;29440;48.208;11.162;2022-11-20T11:14:06;7.50;99.90
43810;DHT22;29440;48.208;11.162;2022-11-20T11:16:32;7.50;99.90
43810;DHT22;29440;48.208;11.162;2022-11-20T11:19:24;7.50;99.90
43810;DHT22;29440;48.208;11.162;2022-11-20T11:21:54;7.40;99.90
43810;DHT22;29440;48.208;11.162;2022-11-20T11:24:28;7.40;99.90
43810;DHT22;29440;48.208;11.162;2022-11-20T11:26:58;7.40;99.90
43810;DHT22;29440;48.208;11.162;2022-11-20T11:29:24;7.40;99.90
43810;DHT22;29440;48.208;11.162;2022-11-20T11:32:03;7.40;99.90
43810;DHT22;29440;48.208;11.162;2022-11-20T11:34:30;7.50;99.90
43810;DHT22;29440;48.208;11.162;2022-11-20T11:36:58;7.40;99.90
43810;DHT22;29440;48.208;11.162;2022-11-20T11:39:26;7.40;99.90
43810;DHT22;29440;48.208;11.162;2022-11-20T11:41:52;7.30;99.90
43810;DHT22;29440;48.208;11.162;2022-11-20T11:44:31;7.20;99.90
43810;DHT22;29440;48.208;11.162;2022-11-20T11:47:30;7.20;99.90
43810;DHT22;29440;48.208;11.162;2022-11-20T11:50:23;7.00;99.90
43810;DHT22;29440;48.208;11.162;2022-11-20T12:00:40;7.10;99.90
43810;DHT22;29440;48.208;11.162;2022-11-20T12:03:20;7.10;99.90
43810;DHT22;29440;48.208;11.162;2022-11-20T12:05:57;7.10;99.90
43810;DHT22;29440;48.208;11.162;2022-11-20T12:08:27;7.20;99.90
43810;DHT22;29440;48.208;11.162;2022-11-20T12:16:13;7.10;99.90
43810;DHT22;29440;48.208;11.162;2022-11-20T12:18:41;7.10;99.90
43810;DHT22;29440;48.208;11.162;2022-11-20T12:21:12;7.10;99.90
43810;DHT22;29440;48.208;11.162;2022-11-20T12:23:53;7.10;99.90
43810;DHT22;29440;48.208;11.162;2022-11-20T12:31:57;7.10;99.90
43810;DHT22;29440;48.208;11.162;2022-11-20T12:34:40;7.10;99.90
43810;DHT22;29440;48.208;11.162;2022-11-20T12:39:49;7.00;99.90
43810;DHT22;29440;48.208;11.162;2022-11-20T12:42:42;7.00;99.90
43810;DHT22;29440;48.208;11.162;2022-11-20T12:45:46;7.00;99.90
43810;DHT22;29440;48.208;11.162;2022-11-20T12:48:50;7.00;99.90
43810;DHT22;29440;48.208;11.162;2022-11-20T13:01:40;6.80;99.90
43810;DHT22;29440;48.208;11.162;2022-11-20T13:04:22;6.80;99.90
43810;DHT22;29440;48.208;11.162;2022-11-20T13:06:50;6.80;99.90
43810;DHT22;29440;48.208;11.162;2022-11-20T13:09:18;6.80;99.90
43810;DHT22;29440;48.208;11.162;2022-11-20T13:17:20;6.70;99.90
43810;DHT22;29440;48.208;11.162;2022-11-20T13:19:52;6.80;99.90
43810;DHT22;29440;48.208;11.162;2022-11-20T13:22:43;6.70;99.90
43810;DHT22;29440;48.208;11.162;2022-11-20T13:25:10;6.70;99.90
43810;DHT22;29440;48.208;11.162;2022-11-20T13:27:35;6.80;99.90
43810;DHT22;29440;48.208;11.162;2022-11-20T13:30:14;6.70;99.90
43810;DHT22;29440;48.208;11.162;2022-11-20T13:35:54;6.70;99.90
43810;DHT22;29440;48.208;11.162;2022-11-20T13:38:20;6.70;99.90
43810;DHT22;29440;48.208;11.162;2022-11-20T13:40:54;6.70;99.90
43810;DHT22;29440;48.208;11.162;2022-11-20T13:45:56;6.70;99.90
43810;DHT22;29440;48.208;11.162;2022-11-20T13:48:25;6.70;99.90
43810;DHT22;29440;48.208;11.162;2022-11-20T13:54:14;6.70;99.90
43810;DHT22;29440;48.208;11.162;2022-11-20T13:57:02;6.70;99.90
43810;DHT22;29440;48.208;11.162;2022-11-20T14:00:12;6.70;99.90
43810;DHT22;29440;48.208;11.162;2022-11-20T14:02:35;6.70;99.90
43810;DHT22;29440;48.208;11.162;2022-11-20T14:05:01;6.70;99.90
43810;DHT22;29440;48.208;11.162;2022-11-20T14:07:35;6.80;99.90
43810;DHT22;29440;48.208;11.162;2022-11-20T14:10:03;6.70;99.90
43810;DHT22;29440;48.208;11.162;2022-11-20T14:12:31;6.70;99.90
43810;DHT22;29440;48.208;11.162;2022-11-20T14:14:57;6.70;99.90
43810;DHT22;29440;48.208;11.162;2022-11-20T14:17:32;6.70;99.90
43810;DHT22;29440;48.208;11.162;2022-11-20T14:20:02;6.70;99.90
43810;DHT22;29440;48.208;11.162;2022-11-20T14:22:28;6.70;99.90
43810;DHT22;29440;48.208;11.162;2022-11-20T14:27:39;6.70;99.90
43810;DHT22;29440;48.208;11.162;2022-11-20T14:30:12;6.70;99.90
43810;DHT22;29440;48.208;11.162;2022-11-20T14:32:38;6.80;99.90
43810;DHT22;29440;48.208;11.162;2022-11-20T14:35:08;6.70;99.90
43810;DHT22;29440;48.208;11.162;2022-11-20T14:37:37;6.70;99.90
43810;DHT22;29440;48.208;11.162;2022-11-20T14:40:38;6.60;99.90
43810;DHT22;29440;48.208;11.162;2022-11-20T14:43:36;6.60;99.90
43810;DHT22;29440;48.208;11.162;2022-11-20T14:46:08;6.60;99.90
43810;DHT22;29440;48.208;11.162;2022-11-20T14:48:39;6.60;99.90
43810;DHT22;29440;48.208;11.162;2022-11-20T14:51:05;6.60;99.90
43810;DHT22;29440;48.208;11.162;2022-11-20T14:53:33;6.50;99.90
43810;DHT22;29440;48.208;11.162;2022-11-20T14:56:01;6.50;99.90
43810;DHT22;29440;48.208;11.162;2022-11-20T14:58:29;6.50;99.90
43810;DHT22;29440;48.208;11.162;2022-11-20T15:00:56;6.50;99.90
43810;DHT22;29440;48.208;11.162;2022-11-20T15:03:22;6.50;99.90
43810;DHT22;29440;48.208;11.162;2022-11-20T15:05:49;6.40;99.90
43810;DHT22;29440;48.208;11.162;2022-11-20T15:08:16;6.40;99.90
43810;DHT22;29440;48.208;11.162;2022-11-20T15:10:56;6.40;99.90
43810;DHT22;29440;48.208;11.162;2022-11-20T15:13:34;6.40;99.90
43810;DHT22;29440;48.208;11.162;2022-11-20T15:16:03;6.40;99.90
43810;DHT22;29440;48.208;11.162;2022-11-20T15:20:56;6.40;99.90
43810;DHT22;29440;48.208;11.162;2022-11-20T15:23:23;6.40;99.90
43810;DHT22;29440;48.208;11.162;2022-11-20T15:25:49;6.40;99.90
43810;DHT22;29440;48.208;11.162;2022-11-20T15:28:18;6.40;99.90
43810;DHT22;29440;48.208;11.162;2022-11-20T15:30:46;6.30;99.90
43810;DHT22;29440;48.208;11.162;2022-11-20T15:33:13;6.30;99.90
43810;DHT22;29440;48.208;11.162;2022-11-20T15:35:38;6.30;99.90
43810;DHT22;29440;48.208;11.162;2022-11-20T15:38:04;6.20;99.90
43810;DHT22;29440;48.208;11.162;2022-11-20T15:40:29;6.20;99.90
43810;DHT22;29440;48.208;11.162;2022-11-20T15:42:55;6.10;99.90
43810;DHT22;29440;48.208;11.162;2022-11-20T15:47:59;6.00;99.90
43810;DHT22;29440;48.208;11.162;2022-11-20T15:50:34;6.00;99.90
43810;DHT22;29440;48.208;11.162;2022-11-20T15:53:01;6.00;99.90
43810;DHT22;29440;48.208;11.162;2022-11-20T15:55:27;5.90;99.90
43810;DHT22;29440;48.208;11.162;2022-11-20T15:57:52;5.80;99.90
43810;DHT22;29440;48.208;11.162;2022-11-20T16:00:18;5.80;99.90
43810;DHT22;29440;48.208;11.162;2022-11-20T16:02:44;5.80;99.90
43810;DHT22;29440;48.208;11.162;2022-11-20T16:05:11;5.70;99.90
43810;DHT22;29440;48.208;11.162;2022-11-20T16:07:37;5.70;99.90
43810;DHT22;29440;48.208;11.162;2022-11-20T16:10:03;5.60;99.90
43810;DHT22;29440;48.208;11.162;2022-11-20T16:12:28;5.60;99.90
43810;DHT22;29440;48.208;11.162;2022-11-20T16:15:13;5.50;99.90
43810;DHT22;29440;48.208;11.162;2022-11-20T16:18:13;5.50;99.90
43810;DHT22;29440;48.208;11.162;2022-11-20T16:20:40;5.40;99.90
43810;DHT22;29440;48.208;11.162;2022-11-20T16:23:16;5.40;99.90
43810;DHT22;29440;48.208;11.162;2022-11-20T16:25:42;5.40;99.90
43810;DHT22;29440;48.208;11.162;2022-11-20T16:28:08;5.40;99.90
43810;DHT22;29440;48.208;11.162;2022-11-20T16:30:34;5.40;99.90
43810;DHT22;29440;48.208;11.162;2022-11-20T16:33:01;5.40;99.90
43810;DHT22;29440;48.208;11.162;2022-11-20T16:35:28;5.40;99.90
43810;DHT22;29440;48.208;11.162;2022-11-20T16:38:03;5.30;99.90
43810;DHT22;29440;48.208;11.162;2022-11-20T16:40:29;5.30;99.90
43810;DHT22;29440;48.208;11.162;2022-11-20T16:42:54;5.30;99.90
43810;DHT22;29440;48.208;11.162;2022-11-20T16:45:20;5.20;99.90
43810;DHT22;29440;48.208;11.162;2022-11-20T16:47:46;5.10;99.90
43810;DHT22;29440;48.208;11.162;2022-11-20T16:50:12;5.10;99.90
43810;DHT22;29440;48.208;11.162;2022-11-20T16:52:38;5.10;99.90
43810;DHT22;29440;48.208;11.162;2022-11-20T16:55:03;5.00;99.90
43810;DHT22;29440;48.208;11.162;2022-11-20T16:57:30;5.00;99.90
43810;DHT22;29440;48.208;11.162;2022-11-20T16:59:58;5.00;99.90
43810;DHT22;29440;48.208;11.162;2022-11-20T17:02:24;4.90;99.90
43810;DHT22;29440;48.208;11.162;2022-11-20T17:04:50;4.90;99.90
43810;DHT22;29440;48.208;11.162;2022-11-20T17:07:16;4.90;99.90
43810;DHT22;29440;48.208;11.162;2022-11-20T17:09:41;4.80;99.90
43810;DHT22;29440;48.208;11.162;2022-11-20T17:12:07;4.80;99.90
43810;DHT22;29440;48.208;11.162;2022-11-20T17:14:34;4.80;99.90
43810;DHT22;29440;48.208;11.162;2022-11-20T17:16:59;4.70;99.90
43810;DHT22;29440;48.208;11.162;2022-11-20T17:19:25;4.70;99.90
43810;DHT22;29440;48.208;11.162;2022-11-20T17:21:50;4.70;99.90
43810;DHT22;29440;48.208;11.162;2022-11-20T17:24:16;4.70;99.90
43810;DHT22;29440;48.208;11.162;2022-11-20T17:26:42;4.60;99.90
43810;DHT22;29440;48.208;11.162;2022-11-20T17:29:26;4.60;99.90
43810;DHT22;29440;48.208;11.162;2022-11-20T17:31:53;4.60;99.90
43810;DHT22;29440;48.208;11.162;2022-11-20T17:34:18;4.60;99.90
43810;DHT22;29440;48.208;11.162;2022-11-20T17:36:44;4.60;99.90